createdAt,value
2017-10-11T00:02:24.519Z,69.55
2017-10-11T00:04:51.675Z,69.57
2017-10-11T00:07:18.811Z,69.56
2017-10-11T00:09:45.965Z,69.55
2017-10-11T00:12:13.097Z,69.56
2017-10-11T00:14:40.248Z,69.56
2017-10-11T00:17:07.388Z,69.56
2017-10-11T00:19:34.548Z,69.55
2017-10-11T00:22:01.704Z,69.55
2017-10-11T00:24:28.846Z,69.55
2017-10-11T00:26:56.004Z,69.55
2017-10-11T00:29:23.152Z,69.56
2017-10-11T00:31:50.295Z,69.55
2017-10-11T00:34:17.444Z,69.56
2017-10-11T00:36:44.596Z,69.56
2017-10-11T00:39:11.756Z,69.56
2017-10-11T00:41:38.894Z,69.56
2017-10-11T00:44:06.052Z,69.56
2017-10-11T00:46:33.194Z,69.56
2017-10-11T00:49:00.341Z,69.56
2017-10-11T00:51:27.699Z,69.55
2017-10-11T00:53:55.598Z,69.54
2017-10-11T00:56:22.752Z,69.54
2017-10-11T00:58:49.891Z,69.55
2017-10-11T01:01:17.048Z,69.56
2017-10-11T01:03:44.204Z,69.56
2017-10-11T01:06:11.347Z,69.55
2017-10-11T01:08:38.490Z,69.55
2017-10-11T01:11:05.651Z,69.55
2017-10-11T01:13:32.968Z,69.57
2017-10-11T01:16:01.033Z,69.56
2017-10-11T01:18:28.953Z,69.57
2017-10-11T01:20:56.090Z,69.55
2017-10-11T01:23:23.234Z,69.54
2017-10-11T01:25:50.393Z,69.53
2017-10-11T01:28:17.530Z,69.55
2017-10-11T01:30:44.667Z,69.56
2017-10-11T01:33:11.829Z,69.56
2017-10-11T01:35:38.966Z,69.55
2017-10-11T01:38:06.121Z,69.55
2017-10-11T01:40:33.274Z,69.53
2017-10-11T01:43:00.428Z,69.55
2017-10-11T01:45:27.571Z,69.55
2017-10-11T01:47:54.731Z,69.56
2017-10-11T01:50:21.866Z,69.54
2017-10-11T01:52:49.216Z,69.52
2017-10-11T01:55:17.928Z,69.54
2017-10-11T01:57:45.087Z,69.54
2017-10-11T02:00:12.222Z,69.54
2017-10-11T02:02:39.376Z,69.54
2017-10-11T02:05:06.529Z,69.54
2017-10-11T02:07:33.684Z,69.54
2017-10-11T02:10:00.859Z,69.56
2017-10-11T02:12:28.038Z,69.56
2017-10-11T02:14:55.189Z,69.54
2017-10-11T02:17:22.369Z,69.54
2017-10-11T02:19:49.525Z,69.54
2017-10-11T02:22:16.663Z,69.53
2017-10-11T02:24:43.801Z,69.52
2017-10-11T02:27:10.970Z,69.52
2017-10-11T02:29:38.134Z,69.54
2017-10-11T02:32:05.273Z,69.54
2017-10-11T02:34:32.414Z,69.54
2017-10-11T02:36:59.563Z,69.54
2017-10-11T02:39:26.697Z,69.54
2017-10-11T02:41:53.864Z,69.54
2017-10-11T02:44:20.997Z,69.54
2017-10-11T02:46:48.159Z,69.54
2017-10-11T02:49:15.313Z,69.54
2017-10-11T02:51:42.465Z,69.52
2017-10-11T02:54:09.629Z,69.52
2017-10-11T02:56:36.800Z,69.52
2017-10-11T02:59:03.960Z,69.53
2017-10-11T03:01:31.112Z,69.54
2017-10-11T03:03:58.265Z,69.55
2017-10-11T03:06:25.415Z,69.54
2017-10-11T03:08:52.568Z,69.54
2017-10-11T03:11:19.720Z,69.54
2017-10-11T03:13:46.864Z,69.54
2017-10-11T03:16:14.007Z,69.54
2017-10-11T03:18:41.149Z,69.54
2017-10-11T03:21:08.301Z,69.53
2017-10-11T03:23:35.461Z,69.52
2017-10-11T03:26:02.616Z,69.52
2017-10-11T03:28:29.753Z,69.53
2017-10-11T03:30:56.891Z,69.53
2017-10-11T03:33:24.044Z,69.53
2017-10-11T03:35:51.196Z,69.52
2017-10-11T03:38:18.347Z,69.50
2017-10-11T03:40:45.481Z,69.47
2017-10-11T03:43:12.636Z,69.44
2017-10-11T03:45:39.774Z,69.41
2017-10-11T03:48:06.939Z,69.39
2017-10-11T03:50:34.096Z,69.38
2017-10-11T03:53:01.234Z,69.35
2017-10-11T03:55:28.385Z,69.34
2017-10-11T03:57:55.549Z,69.30
2017-10-11T04:00:22.699Z,69.28
2017-10-11T04:02:49.830Z,69.25
2017-10-11T04:05:16.961Z,69.22
2017-10-11T04:07:44.121Z,69.20
2017-10-11T04:10:11.263Z,69.18
2017-10-11T04:12:38.415Z,69.15
2017-10-11T04:15:05.568Z,69.13
2017-10-11T04:17:32.744Z,69.11
2017-10-11T04:19:59.889Z,69.09
2017-10-11T04:22:27.053Z,69.06
2017-10-11T04:24:54.228Z,69.05
2017-10-11T04:27:21.412Z,69.03
2017-10-11T04:29:48.590Z,69.02
2017-10-11T04:32:15.767Z,69.01
2017-10-11T04:34:42.914Z,69.00
2017-10-11T04:37:10.125Z,68.99
2017-10-11T04:39:37.285Z,68.98
2017-10-11T04:42:04.461Z,68.96
2017-10-11T04:44:31.618Z,68.97
2017-10-11T04:46:58.793Z,68.96
2017-10-11T04:49:25.974Z,68.97
2017-10-11T04:51:53.138Z,68.97
2017-10-11T04:54:20.287Z,68.98
2017-10-11T04:56:47.459Z,68.98
2017-10-11T04:59:14.616Z,68.99
2017-10-11T05:01:41.750Z,69.00
2017-10-11T05:04:08.890Z,69.01
2017-10-11T05:06:36.042Z,69.03
2017-10-11T05:09:03.202Z,69.04
2017-10-11T05:11:30.346Z,69.08
2017-10-11T05:13:57.497Z,69.10
2017-10-11T05:16:24.660Z,69.12
2017-10-11T05:18:51.812Z,69.14
2017-10-11T05:21:18.959Z,69.16
2017-10-11T05:23:46.085Z,69.18
2017-10-11T05:26:13.223Z,69.21
2017-10-11T05:28:40.368Z,69.23
2017-10-11T05:31:07.506Z,69.25
2017-10-11T05:33:34.657Z,69.27
2017-10-11T05:36:01.805Z,69.32
2017-10-11T05:38:28.954Z,69.46
2017-10-11T05:40:56.103Z,69.44
2017-10-11T05:43:23.241Z,69.45
2017-10-11T05:45:50.400Z,69.46
2017-10-11T05:48:17.556Z,69.44
2017-10-11T05:50:44.712Z,69.42
2017-10-11T05:53:11.875Z,69.40
2017-10-11T05:55:39.029Z,69.39
2017-10-11T05:58:06.193Z,69.38
2017-10-11T06:00:33.343Z,69.35
2017-10-11T06:03:00.500Z,69.33
2017-10-11T06:05:27.632Z,69.29
2017-10-11T06:07:54.765Z,69.26
2017-10-11T06:10:21.902Z,69.25
2017-10-11T06:12:49.060Z,69.23
2017-10-11T06:15:16.197Z,69.22
2017-10-11T06:17:43.334Z,69.21
2017-10-11T06:20:10.473Z,69.19
2017-10-11T06:22:38.382Z,69.20
2017-10-11T06:25:05.538Z,69.20
2017-10-11T06:27:32.692Z,69.21
2017-10-11T06:29:59.825Z,69.22
2017-10-11T06:32:26.966Z,69.22
2017-10-11T06:34:54.115Z,69.22
2017-10-11T06:37:21.251Z,69.23
2017-10-11T06:39:48.397Z,69.25
2017-10-11T06:42:15.556Z,69.26
2017-10-11T06:44:42.709Z,69.27
2017-10-11T06:47:09.868Z,69.29
2017-10-11T06:49:37.025Z,69.30
2017-10-11T06:52:04.165Z,69.33
2017-10-11T06:54:31.320Z,69.34
2017-10-11T06:56:58.472Z,69.35
2017-10-11T06:59:25.622Z,69.36
2017-10-11T07:01:52.787Z,69.36
2017-10-11T07:04:20.028Z,69.35
2017-10-11T07:06:47.955Z,69.35
2017-10-11T07:09:15.124Z,69.34
2017-10-11T07:11:42.265Z,69.31
2017-10-11T07:14:09.405Z,69.30
2017-10-11T07:16:36.568Z,69.29
2017-10-11T07:19:03.724Z,69.26
2017-10-11T07:21:30.912Z,69.24
2017-10-11T07:23:58.076Z,69.22
2017-10-11T07:26:25.205Z,69.20
2017-10-11T07:28:52.341Z,69.18
2017-10-11T07:31:19.500Z,69.16
2017-10-11T07:33:47.133Z,69.13
2017-10-11T07:36:14.275Z,69.12
2017-10-11T07:38:41.429Z,69.12
2017-10-11T07:41:08.573Z,69.12
2017-10-11T07:43:35.717Z,69.11
2017-10-11T07:46:02.868Z,69.12
2017-10-11T07:48:30.041Z,69.13
2017-10-11T07:50:57.185Z,69.14
2017-10-11T07:53:24.339Z,69.17
2017-10-11T07:55:51.501Z,69.18
2017-10-11T07:58:18.654Z,69.12
2017-10-11T08:00:45.808Z,69.22
2017-10-11T08:03:12.958Z,69.23
2017-10-11T08:05:40.097Z,69.24
2017-10-11T08:08:07.238Z,69.25
2017-10-11T08:10:34.392Z,69.25
2017-10-11T08:13:01.530Z,69.26
2017-10-11T08:15:28.681Z,69.26
2017-10-11T08:17:55.823Z,69.27
2017-10-11T08:20:22.976Z,69.27
2017-10-11T08:22:50.128Z,69.26
2017-10-11T08:25:17.301Z,69.26
2017-10-11T08:27:44.473Z,69.25
2017-10-11T08:30:11.649Z,69.24
2017-10-11T08:32:38.803Z,69.24
2017-10-11T08:35:05.960Z,69.24
2017-10-11T08:37:33.115Z,69.24
2017-10-11T08:40:00.253Z,69.23
2017-10-11T08:42:27.423Z,69.23
2017-10-11T08:44:54.557Z,69.22
2017-10-11T08:47:21.714Z,69.21
2017-10-11T08:49:48.854Z,69.21
2017-10-11T08:52:16.015Z,69.20
2017-10-11T08:54:43.171Z,69.20
2017-10-11T08:57:10.440Z,69.19
2017-10-11T08:59:37.599Z,69.19
2017-10-11T09:02:05.497Z,69.18
2017-10-11T09:04:32.633Z,69.18
2017-10-11T09:06:59.774Z,69.17
2017-10-11T09:09:26.921Z,69.17
2017-10-11T09:11:54.100Z,69.17
2017-10-11T09:14:21.261Z,69.17
2017-10-11T09:16:48.426Z,69.17
2017-10-11T09:19:15.611Z,69.17
2017-10-11T09:21:42.759Z,69.17
2017-10-11T09:24:09.907Z,69.17
2017-10-11T09:26:37.064Z,69.17
2017-10-11T09:29:04.234Z,69.18
2017-10-11T09:31:31.391Z,69.18
2017-10-11T09:33:58.535Z,69.18
2017-10-11T09:36:25.693Z,69.19
2017-10-11T09:38:52.838Z,69.19
2017-10-11T09:41:19.993Z,69.19
2017-10-11T09:43:47.160Z,69.19
2017-10-11T09:46:14.311Z,69.20
2017-10-11T09:48:41.446Z,69.20
2017-10-11T09:51:08.612Z,69.20
2017-10-11T09:53:35.759Z,69.20
2017-10-11T09:56:02.911Z,69.20
2017-10-11T09:58:30.050Z,69.20
2017-10-11T10:00:57.198Z,69.20
2017-10-11T10:03:24.350Z,69.20
2017-10-11T10:05:51.491Z,69.20
2017-10-11T10:08:18.645Z,69.20
2017-10-11T10:10:45.812Z,69.20
2017-10-11T10:13:12.982Z,69.20
2017-10-11T10:15:40.136Z,69.20
2017-10-11T10:18:07.296Z,69.20
2017-10-11T10:20:34.447Z,69.19
2017-10-11T10:23:01.587Z,69.20
2017-10-11T10:25:28.721Z,69.20
2017-10-11T10:27:55.901Z,69.20
2017-10-11T10:30:23.052Z,69.20
2017-10-11T10:32:50.219Z,69.19
2017-10-11T10:35:18.150Z,69.25
2017-10-11T10:37:45.308Z,69.25
2017-10-11T10:40:13.247Z,69.23
2017-10-11T10:42:40.441Z,69.23
2017-10-11T10:45:07.596Z,69.23
2017-10-11T10:47:34.756Z,69.23
2017-10-11T10:50:01.911Z,69.24
2017-10-11T10:52:29.064Z,69.25
2017-10-11T10:54:56.428Z,69.24
2017-10-11T10:57:24.351Z,69.25
2017-10-11T10:59:51.512Z,69.25
2017-10-11T11:02:18.645Z,69.28
2017-10-11T11:04:45.790Z,69.28
2017-10-11T11:07:12.930Z,69.29
2017-10-11T11:09:40.070Z,69.29
2017-10-11T11:12:07.221Z,69.29
2017-10-11T11:14:34.377Z,69.32
2017-10-11T11:17:01.536Z,69.33
2017-10-11T11:19:28.691Z,69.34
2017-10-11T11:21:55.829Z,69.34
2017-10-11T11:24:22.985Z,69.35
2017-10-11T11:26:50.140Z,69.35
2017-10-11T11:29:17.859Z,69.36
2017-10-11T11:31:45.037Z,69.36
2017-10-11T11:34:12.172Z,69.37
2017-10-11T11:36:39.310Z,69.38
2017-10-11T11:39:06.679Z,69.38
2017-10-11T11:41:33.849Z,69.38
2017-10-11T11:44:00.985Z,69.38
2017-10-11T11:46:28.122Z,69.37
2017-10-11T11:48:55.266Z,69.35
2017-10-11T11:51:22.411Z,69.33
2017-10-11T11:53:49.580Z,69.30
2017-10-11T11:56:16.746Z,69.26
2017-10-11T11:58:44.188Z,69.23
2017-10-11T12:01:11.326Z,69.21
2017-10-11T12:03:38.486Z,69.18
2017-10-11T12:06:05.636Z,69.13
2017-10-11T12:08:32.779Z,69.10
2017-10-11T12:10:59.941Z,69.06
2017-10-11T12:13:27.085Z,69.04
2017-10-11T12:15:54.240Z,69.01
2017-10-11T12:18:21.397Z,68.99
2017-10-11T12:20:48.556Z,69.00
2017-10-11T12:23:15.981Z,68.99
2017-10-11T12:25:43.117Z,68.99
2017-10-11T12:28:11.029Z,68.99
2017-10-11T12:30:38.175Z,69.00
2017-10-11T12:33:05.333Z,69.03
2017-10-11T12:35:32.483Z,69.01
2017-10-11T12:37:59.617Z,69.01
2017-10-11T12:40:26.773Z,69.02
2017-10-11T12:42:53.936Z,69.04
2017-10-11T12:45:21.089Z,69.06
2017-10-11T12:47:48.248Z,69.07
2017-10-11T12:50:15.382Z,69.09
2017-10-11T12:52:42.517Z,69.10
2017-10-11T12:55:09.685Z,69.11
2017-10-11T12:57:36.821Z,69.11
2017-10-11T13:00:03.972Z,69.12
2017-10-11T13:02:31.123Z,69.13
2017-10-11T13:04:58.265Z,69.15
2017-10-11T13:07:25.409Z,69.14
2017-10-11T13:09:52.564Z,69.16
2017-10-11T13:12:19.715Z,69.17
2017-10-11T13:14:46.868Z,69.17
2017-10-11T13:17:14.010Z,69.18
2017-10-11T13:19:41.169Z,69.18
2017-10-11T13:22:08.309Z,69.19
2017-10-11T13:24:35.455Z,69.18
2017-10-11T13:27:02.614Z,69.19
2017-10-11T13:29:29.774Z,69.19
2017-10-11T13:31:56.918Z,69.19
2017-10-11T13:34:24.054Z,69.19
2017-10-11T13:36:51.241Z,69.27
2017-10-11T13:39:20.091Z,69.28
2017-10-11T13:41:47.325Z,69.36
2017-10-11T13:44:15.288Z,69.41
2017-10-11T13:46:43.089Z,69.41
2017-10-11T13:49:10.678Z,69.42
2017-10-11T13:51:38.245Z,69.38
2017-10-11T13:54:06.430Z,69.30
2017-10-11T13:56:33.605Z,69.23
2017-10-11T13:59:00.775Z,69.16
2017-10-11T14:01:28.391Z,69.20
2017-10-11T14:03:56.367Z,69.24
2017-10-11T14:06:24.037Z,69.23
2017-10-11T14:08:51.199Z,69.21
2017-10-11T14:11:18.346Z,69.19
2017-10-11T14:13:45.508Z,69.17
2017-10-11T14:16:12.649Z,69.12
2017-10-11T14:18:40.636Z,69.08
2017-10-11T14:21:08.562Z,69.07
2017-10-11T14:23:35.743Z,69.06
2017-10-11T14:26:02.920Z,69.03
2017-10-11T14:28:30.103Z,69.11
2017-10-11T14:30:57.293Z,69.14
2017-10-11T14:33:25.250Z,69.12
2017-10-11T14:35:52.428Z,69.11
2017-10-11T14:38:19.688Z,69.07
2017-10-11T14:40:46.856Z,69.03
2017-10-11T14:43:14.458Z,69.01
2017-10-11T14:45:41.648Z,68.98
2017-10-11T14:48:08.939Z,68.91
2017-10-11T14:50:36.561Z,68.91
2017-10-11T14:53:03.716Z,68.93
2017-10-11T14:55:30.872Z,68.96
2017-10-11T14:57:58.021Z,68.99
2017-10-11T15:00:25.269Z,69.00
2017-10-11T15:02:52.414Z,69.03
2017-10-11T15:05:19.571Z,69.06
2017-10-11T15:07:46.710Z,69.10
2017-10-11T15:10:15.532Z,69.13
2017-10-11T15:12:42.701Z,69.13
2017-10-11T15:15:09.841Z,69.13
2017-10-11T15:17:36.997Z,69.13
2017-10-11T15:20:04.151Z,69.13
2017-10-11T15:22:31.304Z,69.12
2017-10-11T15:24:58.472Z,69.13
2017-10-11T15:27:25.623Z,69.13
2017-10-11T15:29:52.780Z,69.13
2017-10-11T15:32:20.432Z,69.13
2017-10-11T15:34:48.339Z,69.12
2017-10-11T15:37:15.499Z,69.11
2017-10-11T15:39:42.651Z,69.11
2017-10-11T15:42:09.802Z,69.10
2017-10-11T15:44:36.964Z,69.10
2017-10-11T15:47:04.121Z,69.09
2017-10-11T15:49:31.277Z,69.09
2017-10-11T15:51:58.436Z,69.08
2017-10-11T15:54:25.578Z,69.08
2017-10-11T15:56:52.745Z,69.07
2017-10-11T15:59:19.895Z,69.07
2017-10-11T16:01:47.052Z,69.06
2017-10-11T16:04:14.552Z,69.05
2017-10-11T16:06:41.725Z,69.05
2017-10-11T16:09:08.917Z,69.05
2017-10-11T16:11:36.062Z,69.08
2017-10-11T16:14:03.224Z,69.08
2017-10-11T16:16:30.368Z,69.08
2017-10-11T16:18:57.512Z,69.11
2017-10-11T16:21:24.680Z,69.10
2017-10-11T16:23:51.826Z,69.13
2017-10-11T16:26:18.983Z,69.14
2017-10-11T16:28:46.150Z,69.16
2017-10-11T16:31:13.302Z,69.17
2017-10-11T16:33:40.450Z,69.17
2017-10-11T16:36:07.598Z,69.18
2017-10-11T16:38:34.778Z,69.18
2017-10-11T16:41:02.824Z,69.18
2017-10-11T16:43:30.559Z,69.17
2017-10-11T16:45:57.829Z,69.17
2017-10-11T16:48:25.044Z,69.16
2017-10-11T16:50:52.204Z,69.15
2017-10-11T16:53:20.132Z,69.14
2017-10-11T16:55:47.296Z,69.12
2017-10-11T16:58:14.438Z,69.11
2017-10-11T17:00:41.578Z,69.08
2017-10-11T17:03:08.721Z,69.06
2017-10-11T17:05:35.866Z,69.05
2017-10-11T17:08:03.029Z,69.03
2017-10-11T17:10:30.474Z,69.02
2017-10-11T17:12:58.016Z,69.02
2017-10-11T17:15:25.273Z,69.02
2017-10-11T17:17:52.826Z,69.02
2017-10-11T17:20:20.320Z,69.06
2017-10-11T17:22:48.261Z,69.07
2017-10-11T17:25:15.631Z,69.06
2017-10-11T17:27:42.870Z,69.07
2017-10-11T17:30:10.984Z,69.08
2017-10-11T17:32:38.207Z,69.08
2017-10-11T17:35:05.545Z,69.09
2017-10-11T17:37:32.716Z,69.09
2017-10-11T17:39:59.862Z,69.11
2017-10-11T17:42:27.029Z,69.12
2017-10-11T17:44:55.804Z,69.12
2017-10-11T17:47:23.165Z,69.14
2017-10-11T17:49:50.317Z,69.15
2017-10-11T17:52:18.361Z,69.17
2017-10-11T17:54:45.569Z,69.17
2017-10-11T17:57:12.736Z,69.18
2017-10-11T17:59:39.876Z,69.18
2017-10-11T18:02:07.364Z,69.20
2017-10-11T18:04:34.633Z,69.20
2017-10-11T18:07:02.181Z,69.20
2017-10-11T18:09:30.015Z,69.21
2017-10-11T18:11:58.021Z,69.20
2017-10-11T18:14:25.973Z,69.20
2017-10-11T18:16:53.142Z,69.17
2017-10-11T18:19:20.393Z,69.18
2017-10-11T18:21:47.857Z,69.43
2017-10-11T18:24:15.420Z,69.57
2017-10-11T18:26:42.623Z,69.63
2017-10-11T18:29:10.836Z,69.57
2017-10-11T18:31:38.271Z,69.70
2017-10-11T18:34:06.567Z,69.72
2017-10-11T18:36:35.150Z,69.59
2017-10-11T18:39:02.502Z,69.51
2017-10-11T18:41:29.953Z,69.45
2017-10-11T18:43:57.849Z,69.48
2017-10-11T18:46:26.198Z,69.78
2017-10-11T18:48:55.349Z,69.90
2017-10-11T18:51:24.488Z,69.90
2017-10-11T18:53:52.961Z,70.04
2017-10-11T18:56:22.515Z,70.32
2017-10-11T18:58:51.048Z,70.38
2017-10-11T19:01:20.110Z,70.42
2017-10-11T19:03:48.774Z,70.38
2017-10-11T19:06:17.684Z,70.35
2017-10-11T19:08:46.095Z,70.34
2017-10-11T19:11:14.913Z,70.36
2017-10-11T19:13:44.037Z,70.35
2017-10-11T19:16:12.620Z,70.34
2017-10-11T19:18:42.403Z,70.34
2017-10-11T19:21:11.040Z,70.31
2017-10-11T19:23:40.304Z,70.29
2017-10-11T19:26:08.833Z,70.27
2017-10-11T19:28:37.617Z,70.25
2017-10-11T19:31:06.083Z,70.24
2017-10-11T19:33:34.394Z,70.21
2017-10-11T19:36:03.117Z,70.19
2017-10-11T19:38:31.837Z,70.16
2017-10-11T19:41:00.670Z,70.12
2017-10-11T19:43:28.874Z,70.09
2017-10-11T19:45:57.733Z,70.07
2017-10-11T19:48:26.244Z,70.03
2017-10-11T19:50:55.215Z,70.00
2017-10-11T19:53:24.531Z,69.98
2017-10-11T19:55:52.388Z,69.96
2017-10-11T19:58:20.458Z,69.93
2017-10-11T20:00:49.815Z,69.91
2017-10-11T20:03:19.628Z,69.90
2017-10-11T20:05:48.598Z,69.88
2017-10-11T20:08:17.487Z,69.88
2017-10-11T20:10:46.271Z,69.89
2017-10-11T20:13:13.802Z,69.90
2017-10-11T20:15:42.227Z,69.90
2017-10-11T20:18:11.658Z,69.89
2017-10-11T20:20:40.753Z,69.88
2017-10-11T20:23:10.025Z,69.87
2017-10-11T20:25:39.075Z,69.86
2017-10-11T20:28:06.378Z,69.87
2017-10-11T20:30:35.114Z,69.87
2017-10-11T20:33:03.827Z,69.89
2017-10-11T20:35:32.120Z,69.89
2017-10-11T20:37:59.766Z,69.87
2017-10-11T20:40:26.947Z,69.88
2017-10-11T20:42:54.135Z,69.89
2017-10-11T20:45:21.431Z,69.89
2017-10-11T20:47:48.585Z,69.90
2017-10-11T20:50:15.730Z,69.90
2017-10-11T20:52:42.888Z,69.90
2017-10-11T20:55:10.048Z,69.89
2017-10-11T20:57:37.197Z,69.88
2017-10-11T21:00:05.142Z,69.87
2017-10-11T21:02:32.289Z,69.86
2017-10-11T21:04:59.429Z,69.84
2017-10-11T21:07:26.601Z,69.82
2017-10-11T21:09:53.779Z,69.79
2017-10-11T21:12:20.936Z,69.77
2017-10-11T21:14:48.090Z,69.76
2017-10-11T21:17:15.260Z,69.74
2017-10-11T21:19:42.520Z,69.73
2017-10-11T21:22:09.687Z,69.73
2017-10-11T21:24:37.012Z,69.73
2017-10-11T21:27:04.893Z,69.72
2017-10-11T21:29:32.059Z,69.73
2017-10-11T21:31:59.225Z,69.73
2017-10-11T21:34:26.370Z,69.73
2017-10-11T21:36:53.510Z,69.74
2017-10-11T21:39:21.004Z,69.74
2017-10-11T21:41:48.162Z,69.75
2017-10-11T21:44:15.319Z,69.76
2017-10-11T21:46:42.466Z,69.76
2017-10-11T21:49:10.384Z,69.77
2017-10-11T21:51:37.522Z,69.78
2017-10-11T21:54:04.662Z,69.78
2017-10-11T21:56:31.829Z,69.78
2017-10-11T21:58:58.978Z,69.78
2017-10-11T22:01:26.150Z,69.78
2017-10-11T22:03:53.373Z,69.78
2017-10-11T22:06:20.514Z,69.80
2017-10-11T22:08:47.667Z,69.80
2017-10-11T22:11:14.848Z,69.81
2017-10-11T22:13:42.005Z,69.81
2017-10-11T22:16:09.142Z,69.81
2017-10-11T22:18:36.304Z,69.81
2017-10-11T22:21:03.469Z,69.79
2017-10-11T22:23:30.609Z,69.79
2017-10-11T22:25:58.699Z,69.78
2017-10-11T22:28:26.633Z,69.79
2017-10-11T22:30:53.847Z,69.79
2017-10-11T22:33:21.749Z,69.78
2017-10-11T22:35:48.911Z,69.78
2017-10-11T22:38:16.059Z,69.79
2017-10-11T22:40:43.213Z,69.79
2017-10-11T22:43:10.365Z,69.78
2017-10-11T22:45:37.519Z,69.79
2017-10-11T22:48:04.666Z,69.79
2017-10-11T22:50:31.828Z,69.78
2017-10-11T22:52:58.987Z,69.79
2017-10-11T22:55:26.143Z,69.77
2017-10-11T22:57:53.299Z,69.77
2017-10-11T23:00:20.461Z,69.77
2017-10-11T23:02:47.625Z,69.77
2017-10-11T23:05:14.792Z,69.77
2017-10-11T23:07:41.949Z,69.78
2017-10-11T23:10:09.110Z,69.77
2017-10-11T23:12:36.257Z,69.77
2017-10-11T23:15:03.424Z,69.78
2017-10-11T23:17:30.598Z,69.78
2017-10-11T23:19:57.776Z,69.75
2017-10-11T23:22:24.950Z,69.78
2017-10-11T23:24:52.135Z,69.75
2017-10-11T23:27:19.297Z,69.74
2017-10-11T23:29:46.460Z,69.74
2017-10-11T23:32:13.610Z,69.74
2017-10-11T23:34:40.757Z,69.74
2017-10-11T23:37:07.897Z,69.74
2017-10-11T23:39:35.060Z,69.74
2017-10-11T23:42:02.202Z,69.74
2017-10-11T23:44:29.365Z,69.74
2017-10-11T23:46:56.556Z,69.74
2017-10-11T23:49:23.702Z,69.74
2017-10-11T23:51:50.880Z,69.72
2017-10-11T23:54:18.021Z,69.73
2017-10-11T23:56:45.166Z,69.73
2017-10-11T23:59:12.305Z,69.73
